sensor_id;sensor_type;location;lat;lon;timestamp;temperature;humidity
2435;DHT22;1228;51.022;6.764;2024-01-06T00:01:49;7.20;99.90
2435;DHT22;1228;51.022;6.764;2024-01-06T00:04:15;7.20;99.90
2435;DHT22;1228;51.022;6.764;2024-01-06T00:06:40;7.20;99.90
2435;DHT22;1228;51.022;6.764;2024-01-06T00:09:06;7.10;99.90
2435;DHT22;1228;51.022;6.764;2024-01-06T00:11:32;7.10;99.90
2435;DHT22;1228;51.022;6.764;2024-01-06T00:13:58;7.10;99.90
2435;DHT22;1228;51.022;6.764;2024-01-06T00:16:23;7.10;99.90
2435;DHT22;1228;51.022;6.764;2024-01-06T00:18:49;7.00;99.90
2435;DHT22;1228;51.022;6.764;2024-01-06T00:21:15;7.00;99.90
2435;DHT22;1228;51.022;6.764;2024-01-06T00:23:41;7.00;99.90
2435;DHT22;1228;51.022;6.764;2024-01-06T00:26:07;6.90;99.90
2435;DHT22;1228;51.022;6.764;2024-01-06T00:28:33;7.00;99.90
2435;DHT22;1228;51.022;6.764;2024-01-06T00:30:59;7.00;99.90
2435;DHT22;1228;51.022;6.764;2024-01-06T00:33:25;6.90;99.90
2435;DHT22;1228;51.022;6.764;2024-01-06T00:35:50;6.90;99.90
2435;DHT22;1228;51.022;6.764;2024-01-06T00:38:16;6.90;99.90
2435;DHT22;1228;51.022;6.764;2024-01-06T00:40:41;6.90;99.90
2435;DHT22;1228;51.022;6.764;2024-01-06T00:43:07;6.90;99.90
2435;DHT22;1228;51.022;6.764;2024-01-06T00:45:32;6.90;99.90
2435;DHT22;1228;51.022;6.764;2024-01-06T00:47:58;6.90;99.90
2435;DHT22;1228;51.022;6.764;2024-01-06T00:50:24;6.80;99.90
2435;DHT22;1228;51.022;6.764;2024-01-06T00:52:49;6.90;99.90
2435;DHT22;1228;51.022;6.764;2024-01-06T00:55:21;7.00;99.90
2435;DHT22;1228;51.022;6.764;2024-01-06T00:57:47;6.90;99.90
2435;DHT22;1228;51.022;6.764;2024-01-06T01:00:13;7.00;99.90
2435;DHT22;1228;51.022;6.764;2024-01-06T01:02:39;6.90;99.90
2435;DHT22;1228;51.022;6.764;2024-01-06T01:05:04;6.90;99.90
2435;DHT22;1228;51.022;6.764;2024-01-06T01:07:32;6.90;99.90
2435;DHT22;1228;51.022;6.764;2024-01-06T01:09:58;7.00;99.90
2435;DHT22;1228;51.022;6.764;2024-01-06T01:12:24;6.90;99.90
2435;DHT22;1228;51.022;6.764;2024-01-06T01:14:50;7.00;99.90
2435;DHT22;1228;51.022;6.764;2024-01-06T01:17:16;7.10;99.90
2435;DHT22;1228;51.022;6.764;2024-01-06T01:19:42;7.10;99.90
2435;DHT22;1228;51.022;6.764;2024-01-06T01:22:07;7.00;99.90
2435;DHT22;1228;51.022;6.764;2024-01-06T01:24:33;7.10;99.90
2435;DHT22;1228;51.022;6.764;2024-01-06T01:26:59;7.00;99.90
2435;DHT22;1228;51.022;6.764;2024-01-06T01:29:24;7.10;99.90
2435;DHT22;1228;51.022;6.764;2024-01-06T01:31:51;7.10;99.90
2435;DHT22;1228;51.022;6.764;2024-01-06T01:34:17;7.10;99.90
2435;DHT22;1228;51.022;6.764;2024-01-06T01:36:43;7.10;99.90
2435;DHT22;1228;51.022;6.764;2024-01-06T01:39:08;7.10;99.90
2435;DHT22;1228;51.022;6.764;2024-01-06T01:41:35;7.10;99.90
2435;DHT22;1228;51.022;6.764;2024-01-06T01:44:00;7.10;99.90
2435;DHT22;1228;51.022;6.764;2024-01-06T01:46:30;7.10;99.90
2435;DHT22;1228;51.022;6.764;2024-01-06T01:48:57;7.10;99.90
2435;DHT22;1228;51.022;6.764;2024-01-06T01:51:26;7.10;99.90
2435;DHT22;1228;51.022;6.764;2024-01-06T01:53:53;7.20;99.90
2435;DHT22;1228;51.022;6.764;2024-01-06T01:56:19;7.20;99.90
2435;DHT22;1228;51.022;6.764;2024-01-06T01:58:46;7.20;99.90
2435;DHT22;1228;51.022;6.764;2024-01-06T02:01:12;7.30;99.90
2435;DHT22;1228;51.022;6.764;2024-01-06T02:03:38;7.20;99.90
2435;DHT22;1228;51.022;6.764;2024-01-06T02:06:06;7.20;99.90
2435;DHT22;1228;51.022;6.764;2024-01-06T02:08:31;7.30;99.90
2435;DHT22;1228;51.022;6.764;2024-01-06T02:10:57;7.20;99.90
2435;DHT22;1228;51.022;6.764;2024-01-06T02:13:23;7.20;99.90
2435;DHT22;1228;51.022;6.764;2024-01-06T02:15:49;7.20;99.90
2435;DHT22;1228;51.022;6.764;2024-01-06T02:18:15;7.30;99.90
2435;DHT22;1228;51.022;6.764;2024-01-06T02:20:44;7.30;99.90
2435;DHT22;1228;51.022;6.764;2024-01-06T02:23:12;7.20;99.90
2435;DHT22;1228;51.022;6.764;2024-01-06T02:25:37;7.20;99.90
2435;DHT22;1228;51.022;6.764;2024-01-06T02:28:03;7.20;99.90
2435;DHT22;1228;51.022;6.764;2024-01-06T02:30:28;7.20;99.90
2435;DHT22;1228;51.022;6.764;2024-01-06T02:32:54;7.20;99.90
2435;DHT22;1228;51.022;6.764;2024-01-06T02:35:20;7.10;99.90
2435;DHT22;1228;51.022;6.764;2024-01-06T02:37:46;7.10;99.90
2435;DHT22;1228;51.022;6.764;2024-01-06T02:40:13;7.00;99.90
2435;DHT22;1228;51.022;6.764;2024-01-06T02:42:38;7.00;99.90
2435;DHT22;1228;51.022;6.764;2024-01-06T02:45:04;7.00;99.90
2435;DHT22;1228;51.022;6.764;2024-01-06T02:47:30;7.00;99.90
2435;DHT22;1228;51.022;6.764;2024-01-06T02:49:56;7.10;99.90
2435;DHT22;1228;51.022;6.764;2024-01-06T02:52:21;7.10;99.90
2435;DHT22;1228;51.022;6.764;2024-01-06T02:54:48;7.00;99.90
2435;DHT22;1228;51.022;6.764;2024-01-06T02:57:14;7.10;99.90
2435;DHT22;1228;51.022;6.764;2024-01-06T02:59:40;7.10;99.90
2435;DHT22;1228;51.022;6.764;2024-01-06T03:02:07;7.10;99.90
2435;DHT22;1228;51.022;6.764;2024-01-06T03:04:32;7.10;99.90
2435;DHT22;1228;51.022;6.764;2024-01-06T03:06:58;7.10;99.90
2435;DHT22;1228;51.022;6.764;2024-01-06T03:09:23;7.10;99.90
2435;DHT22;1228;51.022;6.764;2024-01-06T03:11:49;7.10;99.90
2435;DHT22;1228;51.022;6.764;2024-01-06T03:14:15;7.10;99.90
2435;DHT22;1228;51.022;6.764;2024-01-06T03:16:40;7.10;99.90
2435;DHT22;1228;51.022;6.764;2024-01-06T03:19:06;7.10;99.90
2435;DHT22;1228;51.022;6.764;2024-01-06T03:21:31;7.10;99.90
2435;DHT22;1228;51.022;6.764;2024-01-06T03:23:57;7.20;99.90
2435;DHT22;1228;51.022;6.764;2024-01-06T03:26:23;7.20;99.90
2435;DHT22;1228;51.022;6.764;2024-01-06T03:28:49;7.20;99.90
2435;DHT22;1228;51.022;6.764;2024-01-06T03:31:15;7.20;99.90
2435;DHT22;1228;51.022;6.764;2024-01-06T03:33:42;7.20;99.90
2435;DHT22;1228;51.022;6.764;2024-01-06T03:36:08;7.20;99.90
2435;DHT22;1228;51.022;6.764;2024-01-06T03:38:34;7.20;99.90
2435;DHT22;1228;51.022;6.764;2024-01-06T03:40:59;7.20;99.90
2435;DHT22;1228;51.022;6.764;2024-01-06T03:43:25;7.30;99.90
2435;DHT22;1228;51.022;6.764;2024-01-06T03:45:50;7.20;99.90
2435;DHT22;1228;51.022;6.764;2024-01-06T03:48:16;7.30;99.90
2435;DHT22;1228;51.022;6.764;2024-01-06T03:50:42;7.20;99.90
2435;DHT22;1228;51.022;6.764;2024-01-06T03:53:07;7.20;99.90
2435;DHT22;1228;51.022;6.764;2024-01-06T03:55:33;7.20;99.90
2435;DHT22;1228;51.022;6.764;2024-01-06T03:57:59;7.20;99.90
2435;DHT22;1228;51.022;6.764;2024-01-06T04:00:27;7.20;99.90
2435;DHT22;1228;51.022;6.764;2024-01-06T04:02:53;7.20;99.90
2435;DHT22;1228;51.022;6.764;2024-01-06T04:05:18;7.20;99.90
2435;DHT22;1228;51.022;6.764;2024-01-06T04:07:44;7.20;99.90
2435;DHT22;1228;51.022;6.764;2024-01-06T04:10:09;7.20;99.90
2435;DHT22;1228;51.022;6.764;2024-01-06T04:12:35;7.20;99.90
2435;DHT22;1228;51.022;6.764;2024-01-06T04:15:01;7.20;99.90
2435;DHT22;1228;51.022;6.764;2024-01-06T04:17:26;7.20;99.90
2435;DHT22;1228;51.022;6.764;2024-01-06T04:19:52;7.10;99.90
2435;DHT22;1228;51.022;6.764;2024-01-06T04:22:18;7.10;99.90
2435;DHT22;1228;51.022;6.764;2024-01-06T04:24:44;7.10;99.90
2435;DHT22;1228;51.022;6.764;2024-01-06T04:27:09;7.10;99.90
2435;DHT22;1228;51.022;6.764;2024-01-06T04:29:35;7.10;99.90
2435;DHT22;1228;51.022;6.764;2024-01-06T04:32:01;7.10;99.90
2435;DHT22;1228;51.022;6.764;2024-01-06T04:34:26;7.10;99.90
2435;DHT22;1228;51.022;6.764;2024-01-06T04:36:52;7.20;99.90
2435;DHT22;1228;51.022;6.764;2024-01-06T04:39:18;7.20;99.90
2435;DHT22;1228;51.022;6.764;2024-01-06T04:41:43;7.20;99.90
2435;DHT22;1228;51.022;6.764;2024-01-06T04:44:09;7.20;99.90
2435;DHT22;1228;51.022;6.764;2024-01-06T04:46:34;7.20;99.90
2435;DHT22;1228;51.022;6.764;2024-01-06T04:49:00;7.10;99.90
2435;DHT22;1228;51.022;6.764;2024-01-06T04:51:26;7.00;99.90
2435;DHT22;1228;51.022;6.764;2024-01-06T04:53:51;6.70;99.90
2435;DHT22;1228;51.022;6.764;2024-01-06T04:56:17;6.40;99.90
2435;DHT22;1228;51.022;6.764;2024-01-06T04:58:42;6.20;99.90
2435;DHT22;1228;51.022;6.764;2024-01-06T05:01:08;5.90;99.90
2435;DHT22;1228;51.022;6.764;2024-01-06T05:03:34;5.90;99.90
2435;DHT22;1228;51.022;6.764;2024-01-06T05:05:59;5.80;99.90
2435;DHT22;1228;51.022;6.764;2024-01-06T05:08:25;5.70;99.90
2435;DHT22;1228;51.022;6.764;2024-01-06T05:10:52;5.70;99.90
2435;DHT22;1228;51.022;6.764;2024-01-06T05:13:18;5.70;99.90
2435;DHT22;1228;51.022;6.764;2024-01-06T05:15:43;5.60;99.90
2435;DHT22;1228;51.022;6.764;2024-01-06T05:18:09;5.60;99.90
2435;DHT22;1228;51.022;6.764;2024-01-06T05:20:34;5.60;99.90
2435;DHT22;1228;51.022;6.764;2024-01-06T05:23:00;5.60;99.90
2435;DHT22;1228;51.022;6.764;2024-01-06T05:25:25;5.50;99.90
2435;DHT22;1228;51.022;6.764;2024-01-06T05:27:51;5.60;99.90
2435;DHT22;1228;51.022;6.764;2024-01-06T05:30:17;5.50;99.90
2435;DHT22;1228;51.022;6.764;2024-01-06T05:32:43;5.50;99.90
2435;DHT22;1228;51.022;6.764;2024-01-06T05:35:09;5.50;99.90
2435;DHT22;1228;51.022;6.764;2024-01-06T05:37:34;5.60;99.90
2435;DHT22;1228;51.022;6.764;2024-01-06T05:40:00;5.60;99.90
2435;DHT22;1228;51.022;6.764;2024-01-06T05:42:28;5.60;99.90
2435;DHT22;1228;51.022;6.764;2024-01-06T05:44:54;5.70;99.90
2435;DHT22;1228;51.022;6.764;2024-01-06T05:47:20;5.60;99.90
2435;DHT22;1228;51.022;6.764;2024-01-06T05:49:46;5.60;99.90
2435;DHT22;1228;51.022;6.764;2024-01-06T05:52:11;5.60;99.90
2435;DHT22;1228;51.022;6.764;2024-01-06T05:54:40;5.50;99.90
2435;DHT22;1228;51.022;6.764;2024-01-06T05:57:06;5.50;99.90
2435;DHT22;1228;51.022;6.764;2024-01-06T05:59:35;5.40;99.90
2435;DHT22;1228;51.022;6.764;2024-01-06T06:02:01;5.50;99.90
2435;DHT22;1228;51.022;6.764;2024-01-06T06:04:26;5.40;99.90
2435;DHT22;1228;51.022;6.764;2024-01-06T06:06:52;5.40;99.90
2435;DHT22;1228;51.022;6.764;2024-01-06T06:09:17;5.40;99.90
2435;DHT22;1228;51.022;6.764;2024-01-06T06:11:43;5.50;99.90
2435;DHT22;1228;51.022;6.764;2024-01-06T06:14:09;5.40;99.90
2435;DHT22;1228;51.022;6.764;2024-01-06T06:16:35;5.40;99.90
2435;DHT22;1228;51.022;6.764;2024-01-06T06:19:00;5.40;99.90
2435;DHT22;1228;51.022;6.764;2024-01-06T06:21:26;5.40;99.90
2435;DHT22;1228;51.022;6.764;2024-01-06T06:23:51;5.50;99.90
2435;DHT22;1228;51.022;6.764;2024-01-06T06:26:17;5.50;99.90
2435;DHT22;1228;51.022;6.764;2024-01-06T06:28:43;5.40;99.90
2435;DHT22;1228;51.022;6.764;2024-01-06T06:31:09;5.50;99.90
2435;DHT22;1228;51.022;6.764;2024-01-06T06:33:34;5.60;99.90
2435;DHT22;1228;51.022;6.764;2024-01-06T06:36:00;5.50;99.90
2435;DHT22;1228;51.022;6.764;2024-01-06T06:38:26;5.60;99.90
2435;DHT22;1228;51.022;6.764;2024-01-06T06:40:52;5.50;99.90
2435;DHT22;1228;51.022;6.764;2024-01-06T06:43:18;5.40;99.90
2435;DHT22;1228;51.022;6.764;2024-01-06T06:45:44;5.40;99.90
2435;DHT22;1228;51.022;6.764;2024-01-06T06:48:09;5.40;99.90
2435;DHT22;1228;51.022;6.764;2024-01-06T06:50:35;5.50;99.90
2435;DHT22;1228;51.022;6.764;2024-01-06T06:53:01;5.60;99.90
2435;DHT22;1228;51.022;6.764;2024-01-06T06:55:27;5.50;99.90
2435;DHT22;1228;51.022;6.764;2024-01-06T06:57:53;5.50;99.90
2435;DHT22;1228;51.022;6.764;2024-01-06T07:00:19;5.40;99.90
2435;DHT22;1228;51.022;6.764;2024-01-06T07:02:45;5.40;99.90
2435;DHT22;1228;51.022;6.764;2024-01-06T07:05:10;5.40;99.90
2435;DHT22;1228;51.022;6.764;2024-01-06T07:07:36;5.30;99.90
2435;DHT22;1228;51.022;6.764;2024-01-06T07:10:03;5.40;99.90
2435;DHT22;1228;51.022;6.764;2024-01-06T07:12:30;5.30;99.90
2435;DHT22;1228;51.022;6.764;2024-01-06T07:14:56;5.30;99.90
2435;DHT22;1228;51.022;6.764;2024-01-06T07:17:22;5.30;99.90
2435;DHT22;1228;51.022;6.764;2024-01-06T07:19:47;5.30;99.90
2435;DHT22;1228;51.022;6.764;2024-01-06T07:22:14;5.40;99.90
2435;DHT22;1228;51.022;6.764;2024-01-06T07:24:41;5.40;99.90
2435;DHT22;1228;51.022;6.764;2024-01-06T07:27:07;5.30;99.90
2435;DHT22;1228;51.022;6.764;2024-01-06T07:29:33;5.40;99.90
2435;DHT22;1228;51.022;6.764;2024-01-06T07:31:58;5.30;99.90
2435;DHT22;1228;51.022;6.764;2024-01-06T07:34:24;5.40;99.90
2435;DHT22;1228;51.022;6.764;2024-01-06T07:36:50;5.40;99.90
2435;DHT22;1228;51.022;6.764;2024-01-06T07:39:16;5.40;99.90
2435;DHT22;1228;51.022;6.764;2024-01-06T07:41:42;5.40;99.90
2435;DHT22;1228;51.022;6.764;2024-01-06T07:44:08;5.30;99.90
2435;DHT22;1228;51.022;6.764;2024-01-06T07:46:33;5.40;99.90
2435;DHT22;1228;51.022;6.764;2024-01-06T07:49:00;5.40;99.90
2435;DHT22;1228;51.022;6.764;2024-01-06T07:51:26;5.30;99.90
2435;DHT22;1228;51.022;6.764;2024-01-06T07:53:51;5.30;99.90
2435;DHT22;1228;51.022;6.764;2024-01-06T07:56:17;5.20;99.90
2435;DHT22;1228;51.022;6.764;2024-01-06T07:58:43;5.20;99.90
2435;DHT22;1228;51.022;6.764;2024-01-06T08:01:09;5.20;99.90
2435;DHT22;1228;51.022;6.764;2024-01-06T08:03:34;5.20;99.90
2435;DHT22;1228;51.022;6.764;2024-01-06T08:06:00;5.10;99.90
2435;DHT22;1228;51.022;6.764;2024-01-06T08:08:26;5.10;99.90
2435;DHT22;1228;51.022;6.764;2024-01-06T08:10:52;5.10;99.90
2435;DHT22;1228;51.022;6.764;2024-01-06T08:13:18;5.00;99.90
2435;DHT22;1228;51.022;6.764;2024-01-06T08:15:43;5.00;99.90
2435;DHT22;1228;51.022;6.764;2024-01-06T08:18:09;5.10;99.90
2435;DHT22;1228;51.022;6.764;2024-01-06T08:20:34;5.10;99.90
2435;DHT22;1228;51.022;6.764;2024-01-06T08:23:00;5.10;99.90
2435;DHT22;1228;51.022;6.764;2024-01-06T08:25:25;5.10;99.90
2435;DHT22;1228;51.022;6.764;2024-01-06T08:27:51;5.20;99.90
2435;DHT22;1228;51.022;6.764;2024-01-06T08:30:17;5.20;99.90
2435;DHT22;1228;51.022;6.764;2024-01-06T08:32:42;5.20;99.90
2435;DHT22;1228;51.022;6.764;2024-01-06T08:35:09;5.30;99.90
2435;DHT22;1228;51.022;6.764;2024-01-06T08:37:35;5.40;99.90
2435;DHT22;1228;51.022;6.764;2024-01-06T08:40:00;5.40;99.90
2435;DHT22;1228;51.022;6.764;2024-01-06T08:42:26;5.40;99.90
2435;DHT22;1228;51.022;6.764;2024-01-06T08:44:52;5.50;99.90
2435;DHT22;1228;51.022;6.764;2024-01-06T08:47:17;5.50;99.90
2435;DHT22;1228;51.022;6.764;2024-01-06T08:49:43;5.50;99.90
2435;DHT22;1228;51.022;6.764;2024-01-06T08:52:08;5.50;99.90
2435;DHT22;1228;51.022;6.764;2024-01-06T08:54:34;5.50;99.90
2435;DHT22;1228;51.022;6.764;2024-01-06T08:57:00;5.40;99.90
2435;DHT22;1228;51.022;6.764;2024-01-06T08:59:26;5.40;99.90
2435;DHT22;1228;51.022;6.764;2024-01-06T09:01:51;5.40;99.90
2435;DHT22;1228;51.022;6.764;2024-01-06T09:04:18;5.40;99.90
2435;DHT22;1228;51.022;6.764;2024-01-06T09:06:44;5.40;99.90
2435;DHT22;1228;51.022;6.764;2024-01-06T09:09:11;5.40;99.90
2435;DHT22;1228;51.022;6.764;2024-01-06T09:11:37;5.30;99.90
2435;DHT22;1228;51.022;6.764;2024-01-06T09:14:03;5.30;99.90
2435;DHT22;1228;51.022;6.764;2024-01-06T09:16:29;5.20;99.90
2435;DHT22;1228;51.022;6.764;2024-01-06T09:18:54;5.30;99.90
2435;DHT22;1228;51.022;6.764;2024-01-06T09:21:20;5.30;99.90
2435;DHT22;1228;51.022;6.764;2024-01-06T09:23:46;5.30;99.90
2435;DHT22;1228;51.022;6.764;2024-01-06T09:26:11;5.30;99.90
2435;DHT22;1228;51.022;6.764;2024-01-06T09:28:37;5.30;99.90
2435;DHT22;1228;51.022;6.764;2024-01-06T09:31:03;5.40;99.90
2435;DHT22;1228;51.022;6.764;2024-01-06T09:33:30;5.30;99.90
2435;DHT22;1228;51.022;6.764;2024-01-06T09:35:55;5.40;99.90
2435;DHT22;1228;51.022;6.764;2024-01-06T09:38:21;5.40;99.90
2435;DHT22;1228;51.022;6.764;2024-01-06T09:40:48;5.40;99.90
2435;DHT22;1228;51.022;6.764;2024-01-06T09:43:14;5.30;99.90
2435;DHT22;1228;51.022;6.764;2024-01-06T09:45:40;5.40;99.90
2435;DHT22;1228;51.022;6.764;2024-01-06T09:48:16;5.40;99.90
2435;DHT22;1228;51.022;6.764;2024-01-06T09:50:43;5.40;99.90
2435;DHT22;1228;51.022;6.764;2024-01-06T09:53:11;5.50;99.90
2435;DHT22;1228;51.022;6.764;2024-01-06T09:55:37;5.50;99.90
2435;DHT22;1228;51.022;6.764;2024-01-06T09:58:04;5.50;99.90
2435;DHT22;1228;51.022;6.764;2024-01-06T10:00:30;5.50;99.90
2435;DHT22;1228;51.022;6.764;2024-01-06T10:02:56;5.50;99.90
2435;DHT22;1228;51.022;6.764;2024-01-06T10:05:22;5.50;99.90
2435;DHT22;1228;51.022;6.764;2024-01-06T10:07:48;5.50;99.90
2435;DHT22;1228;51.022;6.764;2024-01-06T10:10:14;5.60;99.90
2435;DHT22;1228;51.022;6.764;2024-01-06T10:12:41;5.60;99.90
2435;DHT22;1228;51.022;6.764;2024-01-06T10:15:09;5.60;99.90
2435;DHT22;1228;51.022;6.764;2024-01-06T10:17:38;5.50;99.90
2435;DHT22;1228;51.022;6.764;2024-01-06T10:20:13;5.60;99.90
2435;DHT22;1228;51.022;6.764;2024-01-06T10:22:41;5.60;99.90
2435;DHT22;1228;51.022;6.764;2024-01-06T10:25:09;5.80;99.90
2435;DHT22;1228;51.022;6.764;2024-01-06T10:27:38;5.80;99.90
2435;DHT22;1228;51.022;6.764;2024-01-06T10:30:06;5.80;99.90
2435;DHT22;1228;51.022;6.764;2024-01-06T10:32:32;5.80;99.90
2435;DHT22;1228;51.022;6.764;2024-01-06T10:34:58;5.80;99.90
2435;DHT22;1228;51.022;6.764;2024-01-06T10:37:25;5.90;99.90
2435;DHT22;1228;51.022;6.764;2024-01-06T10:40:10;6.00;99.90
2435;DHT22;1228;51.022;6.764;2024-01-06T10:42:37;6.00;99.90
2435;DHT22;1228;51.022;6.764;2024-01-06T10:45:06;6.00;99.90
2435;DHT22;1228;51.022;6.764;2024-01-06T10:47:35;6.10;99.90
2435;DHT22;1228;51.022;6.764;2024-01-06T10:50:00;6.00;99.90
2435;DHT22;1228;51.022;6.764;2024-01-06T10:52:27;6.10;99.90
2435;DHT22;1228;51.022;6.764;2024-01-06T10:54:54;6.10;99.90
2435;DHT22;1228;51.022;6.764;2024-01-06T10:57:21;6.00;99.90
2435;DHT22;1228;51.022;6.764;2024-01-06T10:59:50;6.10;99.90
2435;DHT22;1228;51.022;6.764;2024-01-06T11:02:16;6.10;99.90
2435;DHT22;1228;51.022;6.764;2024-01-06T11:04:46;6.00;99.90
2435;DHT22;1228;51.022;6.764;2024-01-06T11:07:17;5.90;99.90
2435;DHT22;1228;51.022;6.764;2024-01-06T11:09:52;5.90;99.90
2435;DHT22;1228;51.022;6.764;2024-01-06T11:12:19;5.90;99.90
2435;DHT22;1228;51.022;6.764;2024-01-06T11:14:45;5.90;99.90
2435;DHT22;1228;51.022;6.764;2024-01-06T11:17:11;5.90;99.90
2435;DHT22;1228;51.022;6.764;2024-01-06T11:22:28;5.80;99.90
2435;DHT22;1228;51.022;6.764;2024-01-06T11:25:03;5.70;99.90
2435;DHT22;1228;51.022;6.764;2024-01-06T11:27:30;5.60;99.90
2435;DHT22;1228;51.022;6.764;2024-01-06T11:29:58;5.60;99.90
2435;DHT22;1228;51.022;6.764;2024-01-06T11:35:15;5.40;99.90
2435;DHT22;1228;51.022;6.764;2024-01-06T11:43:03;5.20;99.90
2435;DHT22;1228;51.022;6.764;2024-01-06T11:45:30;5.10;99.90
2435;DHT22;1228;51.022;6.764;2024-01-06T11:48:02;5.10;99.90
2435;DHT22;1228;51.022;6.764;2024-01-06T11:50:29;5.10;99.90
2435;DHT22;1228;51.022;6.764;2024-01-06T11:52:55;5.10;99.90
2435;DHT22;1228;51.022;6.764;2024-01-06T11:55:21;4.90;99.90
2435;DHT22;1228;51.022;6.764;2024-01-06T11:57:47;4.90;99.90
2435;DHT22;1228;51.022;6.764;2024-01-06T12:00:16;5.00;99.90
2435;DHT22;1228;51.022;6.764;2024-01-06T12:02:42;4.90;99.90
2435;DHT22;1228;51.022;6.764;2024-01-06T12:05:15;4.90;99.90
2435;DHT22;1228;51.022;6.764;2024-01-06T12:07:42;4.80;99.90
2435;DHT22;1228;51.022;6.764;2024-01-06T12:10:10;4.90;99.90
2435;DHT22;1228;51.022;6.764;2024-01-06T12:12:37;4.90;99.90
2435;DHT22;1228;51.022;6.764;2024-01-06T12:15:03;4.80;99.90
2435;DHT22;1228;51.022;6.764;2024-01-06T12:17:30;4.80;99.90
2435;DHT22;1228;51.022;6.764;2024-01-06T12:19:57;4.70;99.90
2435;DHT22;1228;51.022;6.764;2024-01-06T12:22:22;4.70;99.90
2435;DHT22;1228;51.022;6.764;2024-01-06T12:24:51;4.70;99.90
2435;DHT22;1228;51.022;6.764;2024-01-06T12:27:17;4.70;99.90
2435;DHT22;1228;51.022;6.764;2024-01-06T12:29:43;4.60;99.90
2435;DHT22;1228;51.022;6.764;2024-01-06T12:32:10;4.50;99.90
2435;DHT22;1228;51.022;6.764;2024-01-06T12:34:37;4.50;99.90
2435;DHT22;1228;51.022;6.764;2024-01-06T12:37:04;4.60;99.90
2435;DHT22;1228;51.022;6.764;2024-01-06T12:39:31;4.60;99.90
2435;DHT22;1228;51.022;6.764;2024-01-06T12:41:58;4.60;99.90
2435;DHT22;1228;51.022;6.764;2024-01-06T12:44:25;4.60;99.90
2435;DHT22;1228;51.022;6.764;2024-01-06T12:46:51;4.60;99.90
2435;DHT22;1228;51.022;6.764;2024-01-06T12:49:17;4.50;99.90
2435;DHT22;1228;51.022;6.764;2024-01-06T12:51:42;4.50;99.90
2435;DHT22;1228;51.022;6.764;2024-01-06T12:54:08;4.60;99.90
2435;DHT22;1228;51.022;6.764;2024-01-06T12:56:33;4.60;99.90
2435;DHT22;1228;51.022;6.764;2024-01-06T12:58:59;4.60;99.90
2435;DHT22;1228;51.022;6.764;2024-01-06T13:01:25;4.50;99.90
2435;DHT22;1228;51.022;6.764;2024-01-06T13:03:51;4.40;99.90
2435;DHT22;1228;51.022;6.764;2024-01-06T13:06:18;4.40;99.90
2435;DHT22;1228;51.022;6.764;2024-01-06T13:08:44;4.40;99.90
2435;DHT22;1228;51.022;6.764;2024-01-06T13:11:10;4.40;99.90
2435;DHT22;1228;51.022;6.764;2024-01-06T13:13:36;4.30;99.90
2435;DHT22;1228;51.022;6.764;2024-01-06T13:16:01;4.30;99.90
2435;DHT22;1228;51.022;6.764;2024-01-06T13:18:28;4.40;99.90
2435;DHT22;1228;51.022;6.764;2024-01-06T13:20:55;4.30;99.90
2435;DHT22;1228;51.022;6.764;2024-01-06T13:23:20;4.40;99.90
2435;DHT22;1228;51.022;6.764;2024-01-06T13:25:46;4.30;99.90
2435;DHT22;1228;51.022;6.764;2024-01-06T13:28:12;4.40;99.90
2435;DHT22;1228;51.022;6.764;2024-01-06T13:30:37;4.30;99.90
2435;DHT22;1228;51.022;6.764;2024-01-06T13:33:05;4.20;99.90
2435;DHT22;1228;51.022;6.764;2024-01-06T13:35:30;4.10;99.90
2435;DHT22;1228;51.022;6.764;2024-01-06T13:37:56;4.10;99.90
2435;DHT22;1228;51.022;6.764;2024-01-06T13:40:23;4.20;99.90
2435;DHT22;1228;51.022;6.764;2024-01-06T13:42:50;4.10;99.90
2435;DHT22;1228;51.022;6.764;2024-01-06T13:45:19;4.10;99.90
2435;DHT22;1228;51.022;6.764;2024-01-06T13:47:45;4.00;99.90
2435;DHT22;1228;51.022;6.764;2024-01-06T13:50:16;4.00;99.90
2435;DHT22;1228;51.022;6.764;2024-01-06T13:52:42;4.00;99.90
2435;DHT22;1228;51.022;6.764;2024-01-06T13:55:08;3.90;99.90
2435;DHT22;1228;51.022;6.764;2024-01-06T13:57:34;3.90;99.90
2435;DHT22;1228;51.022;6.764;2024-01-06T14:00:00;4.00;99.90
2435;DHT22;1228;51.022;6.764;2024-01-06T14:02:26;3.90;99.90
2435;DHT22;1228;51.022;6.764;2024-01-06T14:04:52;4.10;99.90
2435;DHT22;1228;51.022;6.764;2024-01-06T14:07:18;4.00;99.90
2435;DHT22;1228;51.022;6.764;2024-01-06T14:09:45;4.00;99.90
2435;DHT22;1228;51.022;6.764;2024-01-06T14:12:11;4.00;99.90
2435;DHT22;1228;51.022;6.764;2024-01-06T14:14:37;3.90;99.90
2435;DHT22;1228;51.022;6.764;2024-01-06T14:17:03;4.00;99.90
2435;DHT22;1228;51.022;6.764;2024-01-06T14:19:29;3.90;99.90
2435;DHT22;1228;51.022;6.764;2024-01-06T14:21:54;3.90;99.90
2435;DHT22;1228;51.022;6.764;2024-01-06T14:24:20;4.00;99.90
2435;DHT22;1228;51.022;6.764;2024-01-06T14:26:55;3.90;99.90
2435;DHT22;1228;51.022;6.764;2024-01-06T14:29:21;4.00;99.90
2435;DHT22;1228;51.022;6.764;2024-01-06T14:31:48;4.00;99.90
2435;DHT22;1228;51.022;6.764;2024-01-06T14:34:14;3.80;99.90
2435;DHT22;1228;51.022;6.764;2024-01-06T14:36:40;3.80;99.90
2435;DHT22;1228;51.022;6.764;2024-01-06T14:39:19;3.70;99.90
2435;DHT22;1228;51.022;6.764;2024-01-06T14:41:48;3.70;99.90
2435;DHT22;1228;51.022;6.764;2024-01-06T14:44:13;3.70;99.90
2435;DHT22;1228;51.022;6.764;2024-01-06T14:46:39;3.70;99.90
2435;DHT22;1228;51.022;6.764;2024-01-06T14:49:07;3.60;99.90
2435;DHT22;1228;51.022;6.764;2024-01-06T14:51:32;3.70;99.90
2435;DHT22;1228;51.022;6.764;2024-01-06T14:53:58;3.70;99.90
2435;DHT22;1228;51.022;6.764;2024-01-06T14:56:24;3.60;99.90
2435;DHT22;1228;51.022;6.764;2024-01-06T14:58:51;3.70;99.90
2435;DHT22;1228;51.022;6.764;2024-01-06T15:01:16;3.70;99.90
2435;DHT22;1228;51.022;6.764;2024-01-06T15:03:42;3.70;99.90
2435;DHT22;1228;51.022;6.764;2024-01-06T15:06:08;3.80;99.90
2435;DHT22;1228;51.022;6.764;2024-01-06T15:08:34;3.80;99.90
2435;DHT22;1228;51.022;6.764;2024-01-06T15:11:00;3.80;99.90
2435;DHT22;1228;51.022;6.764;2024-01-06T15:13:25;3.80;99.90
2435;DHT22;1228;51.022;6.764;2024-01-06T15:15:51;3.80;99.90
2435;DHT22;1228;51.022;6.764;2024-01-06T15:18:17;3.80;99.90
2435;DHT22;1228;51.022;6.764;2024-01-06T15:20:46;3.80;99.90
2435;DHT22;1228;51.022;6.764;2024-01-06T15:23:12;3.80;99.90
2435;DHT22;1228;51.022;6.764;2024-01-06T15:25:38;3.90;99.90
2435;DHT22;1228;51.022;6.764;2024-01-06T15:28:04;3.80;99.90
2435;DHT22;1228;51.022;6.764;2024-01-06T15:30:29;3.80;99.90
2435;DHT22;1228;51.022;6.764;2024-01-06T15:32:55;3.70;99.90
2435;DHT22;1228;51.022;6.764;2024-01-06T15:35:20;3.70;99.90
2435;DHT22;1228;51.022;6.764;2024-01-06T15:37:46;3.60;99.90
2435;DHT22;1228;51.022;6.764;2024-01-06T15:40:12;3.70;99.90
2435;DHT22;1228;51.022;6.764;2024-01-06T15:42:38;3.70;99.90
2435;DHT22;1228;51.022;6.764;2024-01-06T15:45:04;3.60;99.90
2435;DHT22;1228;51.022;6.764;2024-01-06T15:47:30;3.50;99.90
2435;DHT22;1228;51.022;6.764;2024-01-06T15:49:56;3.60;99.90
2435;DHT22;1228;51.022;6.764;2024-01-06T15:52:21;3.50;99.90
2435;DHT22;1228;51.022;6.764;2024-01-06T15:54:48;3.40;99.90
2435;DHT22;1228;51.022;6.764;2024-01-06T15:57:14;3.50;99.90
2435;DHT22;1228;51.022;6.764;2024-01-06T15:59:40;3.30;99.90
2435;DHT22;1228;51.022;6.764;2024-01-06T16:02:05;3.30;99.90
2435;DHT22;1228;51.022;6.764;2024-01-06T16:04:31;3.40;99.90
2435;DHT22;1228;51.022;6.764;2024-01-06T16:06:57;3.40;99.90
2435;DHT22;1228;51.022;6.764;2024-01-06T16:09:22;3.30;99.90
2435;DHT22;1228;51.022;6.764;2024-01-06T16:11:51;3.10;99.90
2435;DHT22;1228;51.022;6.764;2024-01-06T16:14:18;3.00;99.90
2435;DHT22;1228;51.022;6.764;2024-01-06T16:16:43;3.20;99.90
2435;DHT22;1228;51.022;6.764;2024-01-06T16:19:09;3.20;99.90
2435;DHT22;1228;51.022;6.764;2024-01-06T16:21:34;3.20;99.90